createdAt,value
2019-04-06T09:23:28.930Z,883.12
2019-04-06T09:24:29.111Z,1125.00
2019-04-06T09:25:29.119Z,1186.88
2019-04-06T09:26:28.891Z,601.88
2019-04-06T09:27:28.878Z,388.12
2019-04-06T09:28:28.863Z,421.88
2019-04-06T09:29:28.860Z,630.00
2019-04-06T09:30:28.842Z,1164.38
2019-04-06T09:31:28.837Z,1243.12
2019-04-06T09:32:28.934Z,388.12
2019-04-06T09:33:28.821Z,320.62
2019-04-06T09:34:31.073Z,281.25
2019-04-06T09:35:28.786Z,286.88
2019-04-06T09:36:28.780Z,348.75
2019-04-06T09:37:28.764Z,573.75
2019-04-06T09:38:28.753Z,343.12
2019-04-06T09:39:28.750Z,528.75
2019-04-06T09:40:28.975Z,410.62
2019-04-06T09:41:28.719Z,601.88
2019-04-06T09:42:28.711Z,562.50
2019-04-06T09:43:28.705Z,455.62
2019-04-06T09:44:28.717Z,540.00
2019-04-06T09:45:28.678Z,1299.38
2019-04-06T09:46:28.666Z,517.50
2019-04-06T09:47:28.985Z,388.12
2019-04-06T09:48:28.643Z,551.25
2019-04-06T09:49:28.647Z,545.62
2019-04-06T09:50:28.830Z,1040.62
2019-04-06T09:51:28.610Z,517.50
2019-04-06T09:52:28.599Z,523.12
2019-04-06T09:53:28.860Z,1153.12
2019-04-06T09:54:28.575Z,1164.38
2019-04-06T09:55:28.572Z,1333.12
2019-04-06T09:56:28.551Z,1170.00
2019-04-06T09:57:28.540Z,742.50
2019-04-06T09:58:28.749Z,1192.50
2019-04-06T09:59:35.234Z,461.25
2019-04-06T10:00:29.518Z,393.75
2019-04-06T10:01:38.613Z,466.88
2019-04-06T10:02:29.517Z,472.50
2019-04-06T10:03:28.845Z,849.38
2019-04-06T10:04:28.554Z,523.12
2019-04-06T10:05:28.617Z,787.50
2019-04-06T10:06:28.441Z,787.50
2019-04-06T10:07:28.434Z,646.88
2019-04-06T10:08:28.419Z,871.88
2019-04-06T10:09:28.408Z,793.12
2019-04-06T10:10:28.445Z,461.25
2019-04-06T10:11:28.385Z,416.25
2019-04-06T10:12:28.408Z,371.25
2019-04-06T10:13:28.702Z,354.38
2019-04-06T10:14:28.363Z,382.50
2019-04-06T10:15:28.348Z,376.88
2019-04-06T10:16:28.329Z,421.88
2019-04-06T10:17:28.320Z,466.88
2019-04-06T10:18:28.305Z,438.75
2019-04-06T10:19:28.295Z,517.50
2019-04-06T10:20:28.525Z,641.25
2019-04-06T10:21:28.310Z,725.62
2019-04-06T10:22:28.444Z,635.62
2019-04-06T10:23:28.247Z,776.25
2019-04-06T10:24:28.454Z,596.25
2019-04-06T10:25:28.239Z,787.50
2019-04-06T10:26:28.305Z,770.62
2019-04-06T10:27:28.314Z,810.00
2019-04-06T10:28:28.193Z,624.38
2019-04-06T10:29:28.230Z,815.62
2019-04-06T10:30:28.216Z,1575.00
2019-04-06T10:31:28.159Z,1642.50
2019-04-06T10:32:28.148Z,1631.25
2019-04-06T10:33:28.266Z,1597.50
2019-04-06T10:34:28.128Z,1558.12
2019-04-06T10:35:28.150Z,1395.00
2019-04-06T10:36:28.104Z,1558.12
2019-04-06T10:37:28.093Z,1687.50
2019-04-06T10:38:28.351Z,1653.75
2019-04-06T10:39:28.070Z,1704.38
2019-04-06T10:40:28.074Z,1715.62
2019-04-06T10:41:28.165Z,1665.00
2019-04-06T10:42:28.990Z,1704.38
2019-04-06T10:43:28.225Z,1743.75
2019-04-06T10:44:28.097Z,1755.00
2019-04-06T10:45:28.006Z,1715.62
2019-04-06T10:46:28.007Z,1620.00
2019-04-06T10:47:27.983Z,1558.12
2019-04-06T10:48:27.993Z,1603.12
2019-04-06T10:49:27.966Z,1659.38
2019-04-06T10:50:27.953Z,1738.12
2019-04-06T10:51:27.951Z,1698.75
2019-04-06T10:52:27.929Z,1569.38
2019-04-06T10:53:28.229Z,1586.25
2019-04-06T10:54:27.912Z,1642.50
2019-04-06T10:55:28.141Z,1591.88
2019-04-06T10:56:27.894Z,1558.12
2019-04-06T10:57:27.876Z,1631.25
2019-04-06T10:58:27.872Z,1569.38
2019-04-06T10:59:27.858Z,1524.38
2019-04-06T11:00:27.843Z,1631.25
2019-04-06T11:01:27.884Z,1710.00
2019-04-06T11:02:27.821Z,1771.88
2019-04-06T11:03:27.814Z,1777.50
2019-04-06T11:04:27.802Z,1805.62
2019-04-06T11:05:27.790Z,1755.00
2019-04-06T11:06:27.789Z,1721.25
2019-04-06T11:07:27.885Z,1636.88
2019-04-06T11:08:27.966Z,1687.50
2019-04-06T11:09:27.749Z,1648.12
2019-04-06T11:10:27.896Z,1406.25
2019-04-06T11:11:27.736Z,1676.25
2019-04-06T11:12:27.715Z,596.25
2019-04-06T11:13:27.706Z,1693.12
2019-04-06T11:14:27.804Z,1653.75
2019-04-06T11:15:27.714Z,1659.38
2019-04-06T11:16:27.697Z,607.50
2019-04-06T11:17:27.664Z,1580.62
2019-04-06T11:18:27.656Z,1681.88
2019-04-06T11:19:28.159Z,832.50
2019-04-06T11:20:27.770Z,973.12
2019-04-06T11:21:27.662Z,1496.25
2019-04-06T11:22:27.614Z,1479.38
2019-04-06T11:23:27.597Z,1580.62
2019-04-06T11:24:27.584Z,1653.75
2019-04-06T11:25:27.607Z,1715.62
2019-04-06T11:26:27.581Z,1704.38
2019-04-06T11:27:27.775Z,1755.00
2019-04-06T11:28:27.561Z,1710.00
2019-04-06T11:29:27.532Z,1710.00
2019-04-06T11:30:27.522Z,1670.62
2019-04-06T11:31:27.830Z,798.75
2019-04-06T11:32:27.509Z,1440.00
2019-04-06T11:33:27.494Z,1558.12
2019-04-06T11:34:27.477Z,1721.25
2019-04-06T11:35:27.467Z,1777.50
2019-04-06T11:36:27.493Z,1771.88
2019-04-06T11:37:27.454Z,1704.38
2019-04-06T11:38:27.685Z,663.75
2019-04-06T11:39:27.684Z,1800.00
2019-04-06T11:40:27.414Z,1828.12
2019-04-06T11:41:27.672Z,1681.88
2019-04-06T11:42:27.409Z,1113.75
2019-04-06T11:43:27.581Z,1715.62
2019-04-06T11:44:27.370Z,1771.88
2019-04-06T11:45:27.360Z,1861.88
2019-04-06T11:46:27.632Z,1895.62
2019-04-06T11:47:27.378Z,1783.12
2019-04-06T11:48:27.335Z,1738.12
2019-04-06T11:49:27.599Z,1659.38
2019-04-06T11:50:27.319Z,1642.50
2019-04-06T11:51:27.566Z,1535.62
2019-04-06T11:52:27.285Z,1091.25
2019-04-06T11:53:27.308Z,770.62
2019-04-06T11:54:27.274Z,748.12
2019-04-06T11:55:27.294Z,691.88
2019-04-06T11:56:27.241Z,663.75
2019-04-06T11:57:27.236Z,630.00
2019-04-06T11:58:27.233Z,776.25
2019-04-06T11:59:27.210Z,765.00
2019-04-06T12:00:28.117Z,939.38
2019-04-06T12:01:27.191Z,1333.12
2019-04-06T12:02:27.178Z,1524.38
2019-04-06T12:03:27.176Z,1243.12
2019-04-06T12:04:27.214Z,1501.88
2019-04-06T12:05:27.238Z,1327.50
2019-04-06T12:06:27.366Z,860.62
2019-04-06T12:07:27.258Z,686.25
2019-04-06T12:08:27.120Z,815.62
2019-04-06T12:09:27.268Z,618.75
2019-04-06T12:10:27.092Z,1310.62
2019-04-06T12:11:27.079Z,1698.75
2019-04-06T12:12:27.071Z,1642.50
2019-04-06T12:13:27.067Z,1620.00
2019-04-06T12:14:27.099Z,1698.75
2019-04-06T12:15:27.038Z,1580.62
2019-04-06T12:16:27.027Z,540.00
2019-04-06T12:17:27.017Z,540.00
2019-04-06T12:18:27.257Z,495.00
2019-04-06T12:19:26.993Z,540.00
2019-04-06T12:20:27.161Z,1164.38
2019-04-06T12:21:27.515Z,1203.75
2019-04-06T12:22:27.010Z,686.25
2019-04-06T12:23:26.978Z,517.50
2019-04-06T12:24:26.938Z,652.50
2019-04-06T12:25:27.109Z,427.50
2019-04-06T12:26:27.170Z,444.38
2019-04-06T12:27:26.909Z,579.38
2019-04-06T12:28:26.903Z,1479.38
2019-04-06T12:29:27.000Z,1575.00
2019-04-06T12:30:36.599Z,1468.12
2019-04-06T12:31:27.862Z,1316.25
2019-04-06T12:32:26.852Z,1170.00
2019-04-06T12:33:26.842Z,1423.12
2019-04-06T12:34:27.129Z,1496.25
2019-04-06T12:35:26.820Z,1125.00
2019-04-06T12:36:26.817Z,1147.50
2019-04-06T12:37:26.800Z,1141.88
2019-04-06T12:38:26.788Z,967.50
2019-04-06T12:39:26.841Z,410.62
2019-04-06T12:40:26.791Z,1805.62
2019-04-06T12:41:27.043Z,433.12
2019-04-06T12:42:26.744Z,382.50
2019-04-06T12:43:26.809Z,405.00
2019-04-06T12:44:26.773Z,500.62
2019-04-06T12:45:26.713Z,506.25
2019-04-06T12:46:26.906Z,691.88
2019-04-06T12:47:26.740Z,568.12
2019-04-06T12:48:26.679Z,646.88
2019-04-06T12:49:26.749Z,573.75
2019-04-06T12:50:26.660Z,551.25
2019-04-06T12:51:26.647Z,472.50
2019-04-06T12:52:26.642Z,517.50
2019-04-06T12:53:26.626Z,523.12
2019-04-06T12:54:26.621Z,798.75
2019-04-06T12:55:26.603Z,793.12
2019-04-06T12:56:26.692Z,427.50
2019-04-06T12:57:26.580Z,360.00
2019-04-06T12:58:26.570Z,371.25
2019-04-06T12:59:26.729Z,427.50
2019-04-06T13:00:26.549Z,438.75
2019-04-06T13:01:26.540Z,461.25
2019-04-06T13:02:26.916Z,528.75
2019-04-06T13:03:26.515Z,1170.00
2019-04-06T13:04:26.599Z,1530.00
2019-04-06T13:05:26.493Z,1012.50
2019-04-06T13:06:26.484Z,658.12
2019-04-06T13:07:26.474Z,590.62
2019-04-06T13:08:26.459Z,360.00
2019-04-06T13:09:26.464Z,343.12
2019-04-06T13:10:26.438Z,416.25
2019-04-06T13:11:26.427Z,1316.25
2019-04-06T13:12:26.417Z,1479.38
2019-04-06T13:13:26.417Z,1440.00
2019-04-06T13:14:26.422Z,1496.25
2019-04-06T13:15:26.391Z,523.12
2019-04-06T13:16:26.572Z,669.38
2019-04-06T13:17:26.361Z,540.00
2019-04-06T13:18:26.351Z,528.75
2019-04-06T13:19:26.338Z,438.75
2019-04-06T13:20:26.347Z,511.88
2019-04-06T13:21:26.453Z,607.50
2019-04-06T13:22:26.359Z,416.25
2019-04-06T13:23:26.330Z,360.00
2019-04-06T13:24:26.284Z,348.75
2019-04-06T13:25:26.284Z,360.00
2019-04-06T13:26:26.445Z,337.50
2019-04-06T13:27:26.433Z,315.00
2019-04-06T13:28:26.427Z,315.00
2019-04-06T13:29:26.229Z,320.62
2019-04-06T13:30:26.245Z,337.50
2019-04-06T13:31:26.211Z,371.25
2019-04-06T13:32:26.209Z,376.88
2019-04-06T13:33:26.195Z,303.75
2019-04-06T13:34:26.344Z,247.50
2019-04-06T13:35:26.720Z,213.75
2019-04-06T13:36:26.338Z,196.88
2019-04-06T13:37:26.494Z,174.38
2019-04-06T13:38:26.130Z,168.75
2019-04-06T13:39:26.218Z,168.75
2019-04-06T13:40:26.173Z,174.38
2019-04-06T13:41:26.098Z,180.00
2019-04-06T13:42:26.089Z,185.62
2019-04-06T13:43:26.352Z,196.88
2019-04-06T13:44:26.065Z,202.50
2019-04-06T13:45:26.069Z,219.38
2019-04-06T13:46:26.042Z,225.00
2019-04-06T13:47:26.032Z,230.62
2019-04-06T13:48:26.025Z,230.62
2019-04-06T13:49:26.011Z,208.12
2019-04-06T13:50:26.377Z,196.88
2019-04-06T13:51:26.141Z,174.38
2019-04-06T13:52:25.977Z,174.38
2019-04-06T13:53:25.968Z,163.12
2019-04-06T13:54:25.955Z,157.50
2019-04-06T13:55:26.010Z,146.25
2019-04-06T13:56:25.933Z,140.62
2019-04-06T13:57:25.922Z,146.25
2019-04-06T13:58:25.912Z,146.25
2019-04-06T13:59:25.917Z,140.62
2019-04-06T14:00:25.892Z,140.62
2019-04-06T14:01:26.117Z,135.00
2019-04-06T14:02:25.918Z,146.25
2019-04-06T14:03:25.986Z,146.25
2019-04-06T14:04:25.889Z,163.12
2019-04-06T14:05:26.046Z,174.38
2019-04-06T14:06:25.873Z,180.00
2019-04-06T14:07:25.877Z,196.88
2019-04-06T14:08:25.799Z,196.88
2019-04-06T14:09:25.812Z,191.25
2019-04-06T14:10:25.800Z,191.25
2019-04-06T14:11:25.778Z,191.25
2019-04-06T14:12:26.138Z,180.00
2019-04-06T14:13:25.750Z,168.75
2019-04-06T14:14:25.823Z,157.50
2019-04-06T14:15:25.747Z,151.88
2019-04-06T14:16:25.719Z,151.88
2019-04-06T14:17:25.777Z,163.12
2019-04-06T14:18:25.697Z,180.00
2019-04-06T14:19:26.031Z,191.25
2019-04-06T14:20:25.670Z,196.88
2019-04-06T14:21:25.681Z,196.88
2019-04-06T14:22:25.644Z,191.25
2019-04-06T14:23:25.631Z,185.62
2019-04-06T14:24:25.629Z,191.25
2019-04-06T14:25:25.904Z,196.88
2019-04-06T14:26:25.607Z,196.88
2019-04-06T14:27:25.612Z,202.50
2019-04-06T14:28:25.583Z,196.88
2019-04-06T14:29:25.608Z,180.00
2019-04-06T14:30:25.725Z,174.38
2019-04-06T14:31:29.382Z,174.38
2019-04-06T14:32:25.530Z,168.75
2019-04-06T14:33:25.523Z,168.75
2019-04-06T14:34:25.513Z,168.75
2019-04-06T14:35:25.744Z,168.75
2019-04-06T14:36:25.490Z,168.75
2019-04-06T14:37:25.802Z,174.38
2019-04-06T14:38:25.474Z,168.75
2019-04-06T14:39:25.502Z,157.50
2019-04-06T14:40:25.458Z,140.62
2019-04-06T14:41:25.426Z,140.62
2019-04-06T14:42:25.424Z,140.62
2019-04-06T14:43:25.422Z,140.62
2019-04-06T14:44:25.421Z,146.25
2019-04-06T14:45:25.712Z,174.38
2019-04-06T14:46:25.374Z,196.88
2019-04-06T14:47:25.370Z,196.88
2019-04-06T14:48:25.555Z,219.38
2019-04-06T14:49:31.248Z,225.00
2019-04-06T14:50:26.377Z,213.75
2019-04-06T14:51:25.317Z,196.88
2019-04-06T14:52:25.311Z,168.75
2019-04-06T14:53:25.290Z,157.50
2019-04-06T14:54:27.005Z,146.25
2019-04-06T14:55:25.561Z,140.62
2019-04-06T14:56:25.444Z,135.00
2019-04-06T14:57:25.264Z,129.38
2019-04-06T14:58:25.235Z,129.38
2019-04-06T14:59:25.899Z,129.38
2019-04-06T15:00:25.304Z,123.75
2019-04-06T15:01:37.014Z,123.75
2019-04-06T15:02:26.200Z,123.75
2019-04-06T15:03:25.181Z,123.75
2019-04-06T15:04:25.170Z,123.75
2019-04-06T15:05:25.164Z,129.38
2019-04-06T15:06:25.156Z,129.38
2019-04-06T15:07:25.159Z,129.38
2019-04-06T15:08:25.124Z,129.38
2019-04-06T15:09:25.113Z,129.38
2019-04-06T15:10:25.261Z,140.62
2019-04-06T15:11:25.125Z,163.12
2019-04-06T15:12:25.121Z,168.75
2019-04-06T15:13:25.404Z,185.62
2019-04-06T15:14:25.105Z,185.62
2019-04-06T15:15:25.153Z,185.62
2019-04-06T15:16:25.042Z,191.25
2019-04-06T15:17:25.144Z,213.75
2019-04-06T15:18:25.099Z,303.75
2019-04-06T15:19:25.009Z,174.38
2019-04-06T15:20:25.018Z,168.75
2019-04-06T15:21:24.985Z,163.12
2019-04-06T15:22:25.008Z,151.88
2019-04-06T15:23:25.375Z,140.62
2019-04-06T15:24:24.959Z,135.00
2019-04-06T15:25:24.941Z,123.75
2019-04-06T15:26:24.940Z,118.12
2019-04-06T15:27:24.939Z,112.50
2019-04-06T15:28:25.242Z,106.88
2019-04-06T15:29:25.267Z,106.88
2019-04-06T15:30:24.889Z,112.50
2019-04-06T15:31:24.884Z,118.12
2019-04-06T15:32:24.872Z,129.38
2019-04-06T15:33:24.867Z,123.75
2019-04-06T15:34:24.859Z,129.38
2019-04-06T15:35:24.832Z,118.12
2019-04-06T15:36:25.141Z,112.50
2019-04-06T15:37:24.809Z,106.88
2019-04-06T15:38:24.798Z,106.88
2019-04-06T15:39:24.799Z,106.88
2019-04-06T15:40:25.056Z,106.88
2019-04-06T15:41:24.776Z,106.88
2019-04-06T15:42:24.757Z,112.50
2019-04-06T15:43:24.749Z,112.50
2019-04-06T15:44:24.731Z,118.12
2019-04-06T15:45:24.727Z,112.50
2019-04-06T15:46:24.721Z,112.50
2019-04-06T15:47:24.700Z,112.50
2019-04-06T15:48:36.630Z,112.50
2019-04-06T15:49:25.679Z,112.50
2019-04-06T15:50:24.998Z,118.12
2019-04-06T15:51:24.698Z,112.50
2019-04-06T15:52:25.042Z,112.50
2019-04-06T15:53:24.636Z,106.88
2019-04-06T15:54:24.723Z,112.50
2019-04-06T15:55:24.928Z,106.88
2019-04-06T15:56:24.602Z,106.88
2019-04-06T15:57:24.611Z,106.88
2019-04-06T15:58:24.902Z,106.88
2019-04-06T15:59:24.571Z,106.88
2019-04-06T16:00:24.565Z,106.88
2019-04-06T16:01:24.551Z,112.50
2019-04-06T16:02:24.545Z,112.50
2019-04-06T16:03:24.528Z,118.12
2019-04-06T16:04:24.721Z,118.12
2019-04-06T16:05:24.503Z,118.12
2019-04-06T16:06:24.659Z,112.50
2019-04-06T16:07:31.414Z,112.50
2019-04-06T16:08:25.473Z,112.50
2019-04-06T16:09:24.466Z,112.50
2019-04-06T16:10:24.450Z,118.12
2019-04-06T16:11:24.440Z,118.12
2019-04-06T16:12:24.977Z,106.88
2019-04-06T16:13:24.419Z,101.25
2019-04-06T16:14:24.810Z,101.25
2019-04-06T16:15:24.395Z,95.62
2019-04-06T16:16:24.384Z,90.00
2019-04-06T16:17:24.391Z,95.62
2019-04-06T16:18:24.361Z,95.62
2019-04-06T16:19:24.352Z,95.62
2019-04-06T16:20:24.338Z,101.25
2019-04-06T16:21:24.327Z,101.25
2019-04-06T16:22:24.318Z,101.25
2019-04-06T16:23:24.329Z,95.62
2019-04-06T16:24:24.294Z,95.62
2019-04-06T16:25:24.286Z,95.62
2019-04-06T16:26:24.512Z,101.25
2019-04-06T16:27:24.261Z,95.62
2019-04-06T16:28:24.327Z,95.62
2019-04-06T16:29:24.250Z,95.62
2019-04-06T16:30:24.500Z,90.00
2019-04-06T16:31:24.342Z,90.00
2019-04-06T16:32:32.942Z,90.00
2019-04-06T16:33:25.206Z,90.00
2019-04-06T16:34:24.500Z,90.00
2019-04-06T16:35:24.181Z,84.38
2019-04-06T16:36:24.199Z,84.38
2019-04-06T16:37:24.151Z,84.38
2019-04-06T16:38:24.182Z,84.38
2019-04-06T16:39:24.131Z,78.75
2019-04-06T16:40:24.117Z,78.75
2019-04-06T16:41:24.111Z,73.12
2019-04-06T16:42:24.097Z,73.12
2019-04-06T16:43:24.095Z,73.12
2019-04-06T16:44:24.074Z,67.50
2019-04-06T16:45:24.062Z,67.50
2019-04-06T16:46:24.056Z,67.50
2019-04-06T16:47:24.070Z,67.50
2019-04-06T16:48:24.051Z,67.50
2019-04-06T16:49:24.018Z,61.88
2019-04-06T16:50:24.043Z,61.88
2019-04-06T16:51:23.996Z,61.88
2019-04-06T16:52:24.260Z,61.88
2019-04-06T16:53:23.981Z,61.88
2019-04-06T16:54:23.983Z,56.25
2019-04-06T16:55:23.951Z,56.25
2019-04-06T16:56:24.351Z,56.25
2019-04-06T16:57:23.948Z,56.25
2019-04-06T16:58:23.917Z,56.25
2019-04-06T16:59:23.915Z,50.62
2019-04-06T17:00:23.907Z,50.62
2019-04-06T17:01:23.885Z,50.62
2019-04-06T17:02:24.902Z,50.62
2019-04-06T17:03:23.888Z,50.62
2019-04-06T17:04:23.861Z,50.62
2019-04-06T17:05:23.838Z,45.00
2019-04-06T17:06:23.836Z,45.00
2019-04-06T17:07:23.986Z,45.00
2019-04-06T17:08:23.804Z,45.00
2019-04-06T17:09:23.894Z,45.00
2019-04-06T17:10:23.810Z,45.00
2019-04-06T17:11:24.234Z,45.00
2019-04-06T17:12:23.759Z,39.38
2019-04-06T17:13:23.870Z,39.38
2019-04-06T17:14:23.848Z,39.38
2019-04-06T17:15:24.064Z,39.38
2019-04-06T17:16:23.717Z,39.38
2019-04-06T17:17:23.709Z,39.38
2019-04-06T17:18:23.713Z,33.75
2019-04-06T17:19:23.689Z,33.75
2019-04-06T17:20:23.909Z,33.75
2019-04-06T17:21:24.018Z,33.75
2019-04-06T17:22:23.651Z,33.75
2019-04-06T17:23:23.787Z,33.75
2019-04-06T17:24:23.634Z,33.75
2019-04-06T17:25:24.487Z,28.12
2019-04-06T17:26:25.467Z,28.12
2019-04-06T17:27:23.620Z,28.12
2019-04-06T17:28:23.624Z,28.12
2019-04-06T17:29:23.582Z,28.12
2019-04-06T17:30:23.569Z,28.12
2019-04-06T17:31:23.560Z,28.12
2019-04-06T17:32:34.785Z,28.12
2019-04-06T17:33:24.525Z,28.12
2019-04-06T17:34:23.587Z,22.50
2019-04-06T17:35:23.514Z,22.50
2019-04-06T17:36:23.555Z,22.50
2019-04-06T17:37:23.486Z,22.50
2019-04-06T17:38:24.303Z,22.50
2019-04-06T17:39:23.459Z,22.50
2019-04-06T17:40:23.457Z,16.88
2019-04-06T17:41:23.840Z,16.88
2019-04-06T17:42:23.501Z,16.88
2019-04-06T17:43:23.671Z,16.88
2019-04-06T17:44:23.403Z,16.88
2019-04-06T17:45:23.404Z,16.88
2019-04-06T17:46:23.396Z,16.88
2019-04-06T17:47:23.368Z,11.25
2019-04-06T17:48:23.946Z,11.25
2019-04-06T17:49:24.540Z,11.25
2019-04-06T17:50:23.345Z,11.25
2019-04-06T17:51:23.461Z,11.25
2019-04-06T17:52:23.347Z,11.25
2019-04-06T17:53:23.428Z,11.25
2019-04-06T17:54:23.292Z,11.25
2019-04-06T17:55:23.290Z,11.25
2019-04-06T17:56:23.268Z,5.62
2019-04-06T17:57:23.415Z,5.62
2019-04-06T17:58:23.260Z,5.62
2019-04-06T17:59:23.237Z,5.62
2019-04-06T18:00:23.238Z,5.62
2019-04-06T18:01:23.214Z,5.62
2019-04-06T18:02:23.211Z,5.62
2019-04-06T18:03:23.615Z,5.62
2019-04-06T18:04:23.181Z,5.62
2019-04-06T18:05:23.185Z,5.62
2019-04-06T18:06:23.157Z,5.62
2019-04-06T18:07:23.956Z,0.00
2019-04-06T18:08:23.132Z,0.00
2019-04-06T18:09:23.414Z,0.00
2019-04-06T18:10:23.125Z,0.00
2019-04-06T18:11:23.111Z,0.00
2019-04-06T18:12:23.092Z,0.00
2019-04-06T18:13:23.083Z,0.00
2019-04-06T18:14:23.563Z,0.00
2019-04-06T18:15:23.061Z,0.00
2019-04-06T18:16:23.280Z,0.00
2019-04-06T18:17:23.168Z,0.00
2019-04-06T18:18:23.024Z,0.00
2019-04-06T18:19:23.013Z,0.00
2019-04-06T18:20:23.249Z,0.00
2019-04-06T18:21:23.521Z,0.00
2019-04-06T18:22:23.079Z,0.00
2019-04-06T18:23:23.327Z,0.00
2019-04-06T18:24:22.956Z,0.00
2019-04-06T18:25:23.420Z,0.00
2019-04-06T18:26:22.950Z,0.00
2019-04-06T18:27:22.924Z,0.00
2019-04-06T18:28:22.912Z,0.00
2019-04-06T18:29:22.902Z,0.00
2019-04-06T18:30:22.891Z,0.00
2019-04-06T18:31:22.888Z,0.00
2019-04-06T18:32:25.316Z,0.00
2019-04-06T18:33:22.854Z,0.00
2019-04-06T18:34:22.937Z,0.00
2019-04-06T18:35:22.832Z,0.00
2019-04-06T18:36:23.171Z,0.00
2019-04-06T18:37:22.813Z,0.00
2019-04-06T18:38:23.223Z,0.00
2019-04-06T18:39:22.789Z,0.00
2019-04-06T18:40:22.785Z,0.00
2019-04-06T18:41:22.776Z,0.00
2019-04-06T18:42:23.002Z,0.00
2019-04-06T18:43:23.265Z,0.00
2019-04-06T18:44:23.067Z,0.00
2019-04-06T18:45:23.170Z,0.00
2019-04-06T18:46:22.720Z,0.00
2019-04-06T18:47:23.153Z,0.00
2019-04-06T18:48:22.687Z,0.00
2019-04-06T18:49:22.819Z,0.00
2019-04-06T18:50:33.318Z,0.00
2019-04-06T18:51:23.665Z,0.00
2019-04-06T18:52:22.641Z,0.00
2019-04-06T18:53:22.736Z,0.00
2019-04-06T18:54:22.624Z,0.00
2019-04-06T18:55:22.608Z,0.00
2019-04-06T18:56:22.612Z,0.00
2019-04-06T18:57:22.587Z,0.00
2019-04-06T18:58:22.992Z,0.00
2019-04-06T18:59:23.186Z,0.00
2019-04-06T19:00:22.623Z,0.00
2019-04-06T19:01:22.551Z,0.00
2019-04-06T19:02:22.620Z,0.00
2019-04-06T19:03:22.521Z,0.00
2019-04-06T19:04:22.672Z,0.00
2019-04-06T19:05:22.904Z,0.00
2019-04-06T19:06:22.801Z,0.00
2019-04-06T19:07:22.489Z,0.00
2019-04-06T19:08:23.281Z,0.00
2019-04-06T19:09:24.661Z,0.00
2019-04-06T19:10:22.446Z,0.00
2019-04-06T19:11:22.475Z,0.00
2019-04-06T19:12:22.440Z,0.00
2019-04-06T19:13:23.206Z,0.00
2019-04-06T19:14:22.533Z,0.00
2019-04-06T19:15:22.877Z,0.00
2019-04-06T19:16:22.841Z,0.00
2019-04-06T19:17:22.427Z,0.00
2019-04-06T19:18:22.793Z,0.00
2019-04-06T19:19:23.165Z,0.00
2019-04-06T19:20:22.542Z,0.00
2019-04-06T19:21:22.341Z,0.00
2019-04-06T19:22:22.812Z,0.00
2019-04-06T19:23:22.296Z,0.00
2019-04-06T19:24:22.290Z,0.00
2019-04-06T19:25:22.379Z,0.00
2019-04-06T19:26:22.272Z,0.00
2019-04-06T19:27:22.804Z,0.00
2019-04-06T19:28:22.257Z,0.00
2019-04-06T19:29:22.626Z,0.00
2019-04-06T19:30:22.221Z,0.00
2019-04-06T19:31:22.322Z,0.00
2019-04-06T19:32:22.457Z,0.00
2019-04-06T19:33:25.487Z,0.00
2019-04-06T19:34:22.276Z,0.00
2019-04-06T19:35:22.393Z,0.00
2019-04-06T19:36:22.992Z,0.00
2019-04-06T19:37:22.576Z,0.00
2019-04-06T19:38:22.392Z,0.00
2019-04-06T19:39:22.180Z,0.00
2019-04-06T19:40:22.629Z,0.00
2019-04-06T19:41:22.447Z,0.00
2019-04-06T19:42:22.679Z,0.00
2019-04-06T19:43:22.075Z,0.00
2019-04-06T19:44:22.063Z,0.00
2019-04-06T19:45:22.329Z,0.00
2019-04-06T19:46:22.063Z,0.00
2019-04-06T19:47:22.253Z,0.00
2019-04-06T19:48:22.030Z,0.00
2019-04-06T19:49:22.029Z,0.00
2019-04-06T19:50:22.209Z,0.00
2019-04-06T19:51:22.002Z,0.00
2019-04-06T19:52:21.979Z,0.00
2019-04-06T19:53:22.416Z,0.00
2019-04-06T19:54:22.126Z,0.00
2019-04-06T19:55:22.879Z,0.00
2019-04-06T19:56:22.254Z,0.00
2019-04-06T19:57:21.946Z,0.00
2019-04-06T19:58:21.922Z,0.00
2019-04-06T19:59:21.895Z,0.00
2019-04-06T20:00:22.364Z,0.00
2019-04-06T20:01:21.922Z,0.00
2019-04-06T20:02:22.069Z,0.00
2019-04-06T20:03:29.196Z,0.00
2019-04-06T20:04:22.839Z,0.00
2019-04-06T20:05:21.838Z,0.00
2019-04-06T20:06:21.823Z,0.00
2019-04-06T20:07:21.834Z,0.00
2019-04-06T20:08:21.826Z,0.00
2019-04-06T20:09:21.784Z,0.00
2019-04-06T20:10:21.823Z,0.00
2019-04-06T20:11:22.017Z,0.00
2019-04-06T20:12:21.748Z,0.00
2019-04-06T20:13:22.273Z,0.00
2019-04-06T20:14:21.946Z,0.00
2019-04-06T20:15:22.154Z,0.00
2019-04-06T20:16:21.730Z,0.00
2019-04-06T20:17:22.446Z,0.00
2019-04-06T20:18:21.696Z,0.00
2019-04-06T20:19:22.559Z,0.00
2019-04-06T20:20:22.242Z,0.00
2019-04-06T20:21:21.739Z,0.00
2019-04-06T20:22:21.640Z,0.00
2019-04-06T20:23:22.092Z,0.00
2019-04-06T20:24:21.778Z,0.00
2019-04-06T20:25:21.606Z,0.00
2019-04-06T20:26:22.243Z,0.00
2019-04-06T20:27:21.594Z,0.00
2019-04-06T20:28:22.169Z,0.00
2019-04-06T20:29:22.132Z,0.00
2019-04-06T20:30:21.746Z,0.00
2019-04-06T20:31:21.540Z,0.00
2019-04-06T20:32:21.530Z,0.00
2019-04-06T20:33:21.545Z,0.00
2019-04-06T20:34:21.881Z,0.00
2019-04-06T20:35:21.513Z,0.00
2019-04-06T20:36:21.482Z,0.00
2019-04-06T20:37:21.599Z,0.00
2019-04-06T20:38:21.880Z,0.00
2019-04-06T20:39:22.010Z,0.00
2019-04-06T20:40:21.437Z,0.00
2019-04-06T20:41:21.470Z,0.00
2019-04-06T20:42:21.420Z,0.00
2019-04-06T20:43:21.402Z,0.00
2019-04-06T20:44:21.399Z,0.00
2019-04-06T20:45:21.385Z,0.00
2019-04-06T20:46:21.367Z,0.00
2019-04-06T20:47:21.611Z,0.00
2019-04-06T20:48:21.501Z,0.00
2019-04-06T20:49:21.342Z,0.00
2019-04-06T20:50:21.368Z,0.00
2019-04-06T20:51:21.486Z,0.00
2019-04-06T20:52:21.758Z,0.00
2019-04-06T20:53:21.290Z,0.00
2019-04-06T20:54:21.287Z,0.00
2019-04-06T20:55:21.325Z,0.00
2019-04-06T20:56:21.707Z,0.00
2019-04-06T20:57:21.247Z,0.00
2019-04-06T20:58:21.241Z,0.00
2019-04-06T20:59:21.235Z,0.00
2019-04-06T21:00:21.211Z,0.00
2019-04-06T21:01:21.198Z,0.00
2019-04-06T21:02:21.596Z,0.00
2019-04-06T21:03:21.187Z,0.00
2019-04-06T21:04:21.213Z,0.00
2019-04-06T21:05:21.154Z,0.00
2019-04-06T21:06:21.681Z,0.00
2019-04-06T21:07:21.610Z,0.00
2019-04-06T21:08:21.126Z,0.00
2019-04-06T21:09:21.220Z,0.00
2019-04-06T21:10:21.340Z,0.00
2019-04-06T21:11:21.103Z,0.00
2019-04-06T21:12:21.077Z,0.00
2019-04-06T21:13:21.273Z,0.00
2019-04-06T21:14:21.563Z,0.00
2019-04-06T21:15:21.483Z,0.00
2019-04-06T21:16:21.038Z,0.00
2019-04-06T21:17:21.021Z,0.00
2019-04-06T21:18:21.040Z,0.00
2019-04-06T21:19:21.044Z,0.00
2019-04-06T21:20:21.003Z,0.00
2019-04-06T21:21:21.053Z,0.00
2019-04-06T21:22:20.965Z,0.00
2019-04-06T21:23:20.954Z,0.00
2019-04-06T21:24:20.940Z,0.00
2019-04-06T21:25:21.132Z,0.00
2019-04-06T21:26:21.500Z,0.00
2019-04-06T21:27:20.912Z,0.00
2019-04-06T21:28:20.939Z,0.00
2019-04-06T21:29:21.739Z,0.00
2019-04-06T21:30:21.387Z,0.00
2019-04-06T21:31:20.862Z,0.00
2019-04-06T21:32:20.854Z,0.00
2019-04-06T21:33:20.851Z,0.00
2019-04-06T21:34:21.012Z,0.00
2019-04-06T21:35:21.438Z,0.00
2019-04-06T21:36:20.809Z,0.00
2019-04-06T21:37:21.147Z,0.00
2019-04-06T21:38:20.803Z,0.00
2019-04-06T21:39:21.296Z,0.00
2019-04-06T21:40:21.446Z,0.00
2019-04-06T21:41:20.800Z,0.00
2019-04-06T21:42:20.946Z,0.00
2019-04-06T21:43:20.727Z,0.00
2019-04-06T21:44:20.736Z,0.00
2019-04-06T21:45:20.744Z,0.00
2019-04-06T21:46:21.309Z,0.00
2019-04-06T21:47:20.682Z,0.00
2019-04-06T21:48:21.239Z,0.00
2019-04-06T21:49:21.592Z,0.00
2019-04-06T21:50:20.650Z,0.00
2019-04-06T21:51:20.649Z,0.00
2019-04-06T21:52:20.897Z,0.00
2019-04-06T21:53:20.619Z,0.00
2019-04-06T21:54:20.608Z,0.00
2019-04-06T21:55:20.730Z,0.00
2019-04-06T21:56:20.643Z,0.00
2019-04-06T21:57:20.581Z,0.00
2019-04-06T21:58:20.581Z,0.00
2019-04-06T21:59:20.889Z,0.00
2019-04-06T22:00:20.975Z,0.00
2019-04-06T22:01:20.538Z,0.00
2019-04-06T22:02:20.527Z,0.00
2019-04-06T22:03:20.699Z,0.00
2019-04-06T22:04:25.912Z,0.00
2019-04-06T22:05:21.518Z,0.00
2019-04-06T22:06:20.726Z,0.00